Flight Track Log - Related Links

Times and Time Zones

All times are in EDT time to prevent confusion due to time zone crossing. See the ASQ5861 flight status page for this flight to view local times or setup timezone preferences in your user account.


Time Position Orientation Groundspeed Altitude Reporting Facility
EDT Latitude Longitude Course Direction KTS MPH feet Rate Location/Type
Tue 06:53:46 PM 49.8833 -97.2333 150° Southeast 160 184 2,100  Level Winnipeg Center
Tue 06:54:46 PM 49.8333 -97.2333 180° South 210 242 4,400 2,300 Climbing Winnipeg Center
Tue 06:55:46 PM 49.7667 -97.1667 147° Southeast 260 299 6,700 2,500 Climbing Winnipeg Center
Tue 06:56:46 PM 49.7333 -97.0667 117° Southeast 280 322 9,400 2,250 Climbing Winnipeg Center
Tue 06:57:46 PM 49.6667 -97.0000 147° Southeast 300 345 11,200 1,750 Climbing Winnipeg Center
Tue 06:58:46 PM 49.5833 -96.9167 147° Southeast 330 380 12,900 1,850 Climbing Winnipeg Center
Tue 06:59:00 PM 49.4555 -96.7882 150° Southeast  Level FlightAware Approximate
Tue 06:59:46 PM 49.5000 -96.8333 147° Southeast 340 391 14,900  Level Winnipeg Center
Tue 07:00:46 PM 49.4333 -96.7667 147° Southeast 350 403 16,600 1,500 Climbing Winnipeg Center
Tue 07:01:46 PM 49.3500 -96.6833 147° Southeast 360 414 17,900 1,300 Climbing Winnipeg Center
Tue 07:02:46 PM 49.2500 -96.5833 147° Southeast 370 426 19,200 1,300 Climbing Winnipeg Center
Tue 07:03:46 PM 49.1667 -96.5000 147° Southeast 390 449 20,500 1,450 Climbing Winnipeg Center
Tue 07:04:46 PM 49.0500 -96.4000 151° Southeast 390 449 22,100 1,550 Climbing Winnipeg Center
Tue 07:05:46 PM 48.9667 -96.3333 152° Southeast 390 449 23,600 1,400 Climbing Winnipeg Center
Tue 07:06:46 PM 48.8667 -96.2500 151° Southeast 390 449 24,900 700 Climbing Winnipeg Center
Tue 07:07:46 PM 48.7667 -96.1500 147° Southeast 410 472 25,000 50 Climbing Winnipeg Center
Tue 07:08:46 PM 48.6667 -96.0500 147° Southeast 430 495 25,000  Level Winnipeg Center
Tue 07:09:11 PM 48.6581 -96.0419 148° Southeast 431 496 25,000  Level Minneapolis Center
Tue 07:10:13 PM 48.5517 -95.9444 149° Southeast 442 509 25,000  Level Minneapolis Center
Tue 07:11:15 PM 48.4444 -95.8458 149° Southeast 448 516 25,000  Level Minneapolis Center
Tue 07:12:29 PM 48.3153 -95.7300 149° Southeast 450 518 25,000  Level Minneapolis Center
Tue 07:13:32 PM 48.1869 -95.6136 149° Southeast 450 518 25,000  Level Minneapolis Center
Tue 07:14:34 PM 48.0794 -95.5169 149° Southeast 450 518 25,000  Level Minneapolis Center
Tue 07:15:36 PM 47.9653 -95.4153 149° Southeast 452 520 25,000  Level Minneapolis Center
Tue 07:16:38 PM 47.8575 -95.3208 150° Southeast 452 520 25,000  Level Minneapolis Center
Tue 07:17:40 PM 47.7511 -95.2244 149° Southeast 451 519 25,000  Level Minneapolis Center
Tue 07:18:42 PM 47.6639 -95.1492 150° Southeast 452 520 25,000  Level Minneapolis Center
Tue 07:19:44 PM 47.5119 -95.0167 149° Southeast 453 521 25,000  Level Minneapolis Center
Tue 07:20:58 PM 47.4061 -94.9217 149° Southeast 451 519 25,000  Level Minneapolis Center
Tue 07:22:00 PM 47.2750 -94.8094 150° Southeast 453 521 25,000  Level Minneapolis Center
Tue 07:23:02 PM 47.1661 -94.7158 150° Southeast 456 525 25,000  Level Minneapolis Center
Tue 07:24:04 PM 47.0567 -94.6233 150° Southeast 456 525 25,000  Level Minneapolis Center
Tue 07:25:06 PM 46.9475 -94.5292 149° Southeast 456 525 25,000  Level Minneapolis Center
Tue 07:26:08 PM 46.8164 -94.4178 150° Southeast 457 526 25,000  Level Minneapolis Center
Tue 07:27:10 PM 46.7072 -94.3264 150° Southeast 457 526 25,000  Level Minneapolis Center
Tue 07:28:11 PM 46.6200 -94.2536 150° Southeast 456 525 25,000  Level Minneapolis Center
Tue 07:29:14 PM 46.4908 -94.1447 150° Southeast 453 521 25,000  Level Minneapolis Center
Tue 07:30:16 PM 46.3819 -94.0536 150° Southeast 454 522 25,000  Level Minneapolis Center
Tue 07:31:18 PM 46.2683 -93.9817 156° South 451 519 25,000  Level Minneapolis Center
Tue 07:32:19 PM 46.1303 -93.9069 159° South 443 510 25,000  Level Minneapolis Center
Tue 07:33:21 PM 46.0147 -93.8394 158° South 446 513 25,000  Level Minneapolis Center
Tue 07:34:23 PM 45.8983 -93.7783 160° South 446 513 25,000  Level Minneapolis Center
Tue 07:35:25 PM 45.7831 -93.7169 160° South 445 512 25,000  Level Minneapolis Center
Tue 07:36:27 PM 45.6681 -93.6536 159° South 445 512 25,000  Level Minneapolis Center
Tue 07:37:29 PM 45.5292 -93.5789 159° South 445 512 25,000  Level Minneapolis Center
Tue 07:38:31 PM 45.4136 -93.5164 159° South 446 513 25,000  Level Minneapolis Center
Tue 07:39:33 PM 45.2975 -93.4536 159° South 447 514 25,000  Level Minneapolis Center
Tue 07:40:34 PM 45.1817 -93.3914 159° South 446 513 25,000  Level Minneapolis Center
Tue 07:41:36 PM 45.0975 -93.2561 131° Southeast 465 535 25,000  Level Minneapolis Center
Tue 07:42:38 PM 45.0278 -93.0953 121° Southeast 476 548 25,000  Level Minneapolis Center
Tue 07:43:40 PM 44.9586 -92.9294 120° Southeast 483 556 25,000  Level Minneapolis Center
Tue 07:44:42 PM 44.8886 -92.7644 121° Southeast 487 560 25,000  Level Minneapolis Center
Tue 07:45:44 PM 44.8003 -92.5775 124° Southeast 476 548 25,000  Level Minneapolis Center
Tue 07:46:45 PM 44.7258 -92.4272 125° Southeast 470 541 25,000  Level Minneapolis Center
Tue 07:47:47 PM 44.6514 -92.2736 124° Southeast 473 544 25,000  Level Minneapolis Center
Tue 07:48:49 PM 44.5764 -92.1203 124° Southeast 476 548 25,000  Level Minneapolis Center
Tue 07:49:51 PM 44.5011 -91.9672 125° Southeast 478 550 25,000  Level Minneapolis Center
Tue 07:50:53 PM 44.4267 -91.8156 124° Southeast 476 548 25,000  Level Minneapolis Center
Tue 07:51:55 PM 44.3517 -91.6644 125° Southeast 474 545 25,000  Level Minneapolis Center
Tue 07:52:57 PM 44.2625 -91.4892 125° Southeast 466 536 25,000  Level Minneapolis Center
Tue 07:53:58 PM 44.2044 -91.3750 125° Southeast 459 528 25,000  Level Minneapolis Center
Tue 07:55:00 PM 44.1161 -91.1981 125° Southeast 453 521 25,000  Level Minneapolis Center
Tue 07:56:14 PM 44.0436 -91.0553 125° Southeast 453 521 25,000  Level Minneapolis Center
Tue 07:57:16 PM 43.9575 -90.8867 125° Southeast 449 517 25,000  Level Minneapolis Center
Tue 07:58:18 PM 43.8853 -90.7444 125° Southeast 453 521 25,000  Level Minneapolis Center
Tue 07:59:20 PM 43.8103 -90.5997 126° Southeast 462 532 25,000  Level Minneapolis Center
Tue 08:00:22 PM 43.7372 -90.4594 126° Southeast 453 521 25,000 -478 Level Minneapolis Center
Tue 08:02:41 PM 43.5544 -90.1106 126° Southeast 459 528 23,400 -866 Descending Chicago Center
Tue 08:03:43 PM 43.4817 -89.9703 126° Southeast 453 521 22,100 -1,161 Descending Chicago Center
Tue 08:04:45 PM 43.3972 -89.8136 127° Southeast 438 504 21,000 -532 Descending Chicago Center
Tue 08:05:47 PM 43.3247 -89.6772 126° Southeast 442 509 21,000  Level Chicago Center
Tue 08:06:49 PM 43.2531 -89.5436 126° Southeast 438 504 21,000 -146 Level Chicago Center
Tue 08:07:50 PM 43.1803 -89.4072 126° Southeast 443 510 20,700 -1,024 Descending Chicago Center
Tue 08:08:52 PM 43.0975 -89.3214 143° Southeast 377 434 18,900 -1,548 Descending Chicago Center
Tue 08:09:54 PM 43.0131 -89.2350 143° Southeast 381 438 17,500 -1,452 Descending Chicago Center
Tue 08:10:56 PM 42.9136 -89.1197 140° Southeast 401 461 15,900 -1,258 Descending Chicago Center
Tue 08:11:58 PM 42.8303 -89.0225 139° Southeast 397 457 14,900 -919 Descending Chicago Center
Tue 08:13:00 PM 42.7531 -88.9319 139° Southeast 374 430 14,000 -878 Descending Chicago Center
Tue 08:14:01 PM 42.6747 -88.8442 141° Southeast 366 421 13,100 -927 Descending Chicago Center
Tue 08:15:03 PM 42.5975 -88.7547 140° Southeast 365 420 12,100 -1,016 Descending Chicago Center
Tue 08:16:05 PM 42.5075 -88.6522 140° Southeast 362 417 11,000 -968 Descending Chicago Center
Tue 08:17:07 PM 42.4328 -88.5658 140° Southeast 356 410 10,100 -484 Descending Chicago Center
Tue 08:18:09 PM 42.3667 -88.4744 134° Southeast 348 400 10,000 -98 Descending Chicago Center
Tue 08:19:10 PM 42.3267 -88.3667 117° Southeast 350 403 9,900 -780 Descending Chicago Center
Tue 08:20:12 PM 42.2772 -88.2853 129° Southeast 300 345 8,400 -1,403 Descending Chicago Center
Tue 08:21:14 PM 42.2194 -88.1875 129° Southeast 283 326 7,000 -677 Descending Chicago Center
Tue 08:22:16 PM 42.1678 -88.1128 133° Southeast 277 319 7,000  Level Chicago Center
Tue 08:23:18 PM 42.1094 -88.0497 141° Southeast 272 313 7,000  Level Chicago Center
Tue 08:23:38 PM 42.1000 -88.0167 111° Southeast 280 322 7,000  Level Chicago TRACON
Tue 08:24:38 PM 42.1000 -87.9000 90° East 303 349 7,000 -143 Level Chicago TRACON
Tue 08:25:44 PM 42.0833 -87.7833 101° East 282 325 6,700 -850 Descending Chicago TRACON
Tue 08:26:38 PM 42.0833 -87.6833 90° East 273 314 5,300 -1,409 Descending Chicago TRACON
Tue 08:27:39 PM 42.0833 -87.5833 90° East 257 296 4,000 -645 Descending Chicago TRACON
Tue 08:28:39 PM 42.0833 -87.5000 90° East 243 280 4,000  Level Chicago TRACON
Tue 08:29:45 PM 42.0167 -87.4667 160° South 236 272 4,000  Level Chicago TRACON
Tue 08:30:45 PM 41.9833 -87.5333 236° Southwest 208 239 4,000  Level Chicago TRACON
Tue 08:31:45 PM 41.9833 -87.6000 270° West 158 182 4,000  Level Chicago TRACON
Tue 08:32:45 PM 41.9833 -87.6500 270° West 158 182 4,000 -263 Level Chicago TRACON
Tue 08:33:39 PM 41.9833 -87.7000 270° West 162 186 3,500 -789 Descending Chicago TRACON
Tue 08:34:39 PM 41.9833 -87.7667 270° West 177 204 2,500 -950 Descending Chicago TRACON
Tue 08:35:39 PM 41.9833 -87.8333 270° West 138 159 1,600 -800 Descending Chicago TRACON
Tue 08:36:39 PM 41.9833 -87.8833 270° West 132 152 900 -700 Descending Chicago TRACON
Tue 08:38:00 PM 41.9667 -87.9000 244° Southwest  Level FlightAware Approximate

Login

Don't have an account? Register now (free) for customized features, flight alerts, and more!